KTAD

Details ICAO KTAD
Name PERRY STOKES
Region United States
Timezone America/Denver (UTC-6.0)
Plans Departing 3
Arriving 7
Stats Elevation 5,762 ft / 1,756 m (AMSL)
Location 37.259929° -104.339984°
Runways 2
Magnetic Variation 7.630° E
Sunrise 2018-05-27 11:42:09 UTC / 2018-05-27 05:42:09 Local
Sunset 2018-05-28 02:09:50 UTC / 2018-05-27 20:09:50 Local
Advertisement - Login to hide

Runways

ID Width Length Bearing (true) Bearing (mag) Surface Threshold Offset Overrun Length
03 100 ft / 30 m 5,500 ft / 1,676 m 44.79° 37.16° Asphalt 0 ft / 0 m 0 ft / 0 m
09 100 ft / 30 m 5,486 ft / 1,672 m 106.17° 98.54° Gravel 0 ft / 0 m 0 ft / 0 m
21 100 ft / 30 m 5,500 ft / 1,676 m 224.80° 217.17° Asphalt 0 ft / 0 m 0 ft / 0 m
27 100 ft / 30 m 5,486 ft / 1,672 m 286.18° 278.55° Gravel 0 ft / 0 m 0 ft / 0 m

Map

Weather


0- 5 10 15 20 25 30 35+ Temperature / ° C

Clouds and Precipitation
Forecast for 2018-05-27 18:00 UTC. Updated 5 hours ago

Ground ~20,000 ft ~40,000 ft Winds

METAR

KTAD 272154Z AUTO 18024G37KT 10SM CLR 32/M12 A2984 RMK AO2 PK WND 18039/2127 SLP002 T03221117

TAF

Not found

Frequencies

Recorded 119.02 MHz ASOS
Unicom 122.80 MHz CTAF/UNICOM
Warning: Do not use this data for real-world aviation or navigation. No guarantee of current accuracy is given.